sensor_id;sensor_type;location;lat;lon;timestamp;P1;durP1;ratioP1;P2;durP2;ratioP2
18520;SDS011;9390;51.244;6.982;2023-06-04T15:07:39;4.63;;;1.63;;
18520;SDS011;9390;51.244;6.982;2023-06-04T15:10:10;7.50;;;1.90;;
18520;SDS011;9390;51.244;6.982;2023-06-04T15:12:41;3.97;;;1.30;;
18520;SDS011;9390;51.244;6.982;2023-06-04T15:15:13;10.50;;;1.88;;
18520;SDS011;9390;51.244;6.982;2023-06-04T15:17:44;3.35;;;1.40;;
18520;SDS011;9390;51.244;6.982;2023-06-04T15:20:16;3.40;;;1.58;;
18520;SDS011;9390;51.244;6.982;2023-06-04T15:22:49;5.03;;;1.35;;
18520;SDS011;9390;51.244;6.982;2023-06-04T15:27:51;3.85;;;1.30;;
18520;SDS011;9390;51.244;6.982;2023-06-04T15:30:22;7.10;;;1.60;;
18520;SDS011;9390;51.244;6.982;2023-06-04T15:32:54;4.78;;;1.45;;
18520;SDS011;9390;51.244;6.982;2023-06-04T15:35:30;3.80;;;1.50;;
18520;SDS011;9390;51.244;6.982;2023-06-04T15:38:03;7.38;;;1.40;;
18520;SDS011;9390;51.244;6.982;2023-06-04T15:40:34;4.88;;;1.38;;
18520;SDS011;9390;51.244;6.982;2023-06-04T15:43:05;3.85;;;1.40;;
18520;SDS011;9390;51.244;6.982;2023-06-04T15:45:37;7.50;;;1.58;;
18520;SDS011;9390;51.244;6.982;2023-06-04T15:48:08;3.45;;;1.30;;
18520;SDS011;9390;51.244;6.982;2023-06-04T15:50:40;3.47;;;1.55;;
18520;SDS011;9390;51.244;6.982;2023-06-04T15:53:12;4.18;;;1.50;;
18520;SDS011;9390;51.244;6.982;2023-06-04T15:55:44;3.85;;;1.25;;
18520;SDS011;9390;51.244;6.982;2023-06-04T15:58:16;7.20;;;1.42;;
18520;SDS011;9390;51.244;6.982;2023-06-04T16:00:47;3.63;;;1.63;;
18520;SDS011;9390;51.244;6.982;2023-06-04T16:03:19;5.07;;;1.50;;
18520;SDS011;9390;51.244;6.982;2023-06-04T16:05:50;4.90;;;1.55;;
18520;SDS011;9390;51.244;6.982;2023-06-04T16:08:23;4.38;;;1.58;;
18520;SDS011;9390;51.244;6.982;2023-06-04T16:10:54;4.60;;;1.70;;
18520;SDS011;9390;51.244;6.982;2023-06-04T16:13:26;4.40;;;1.65;;
18520;SDS011;9390;51.244;6.982;2023-06-04T16:15:57;3.92;;;1.77;;
18520;SDS011;9390;51.244;6.982;2023-06-04T16:18:29;4.47;;;1.92;;
18520;SDS011;9390;51.244;6.982;2023-06-04T16:21:01;5.20;;;1.88;;
18520;SDS011;9390;51.244;6.982;2023-06-04T16:23:33;4.57;;;1.77;;
18520;SDS011;9390;51.244;6.982;2023-06-04T16:26:05;5.18;;;1.83;;
18520;SDS011;9390;51.244;6.982;2023-06-04T16:28:36;5.07;;;1.95;;
18520;SDS011;9390;51.244;6.982;2023-06-04T16:31:07;6.40;;;2.00;;
18520;SDS011;9390;51.244;6.982;2023-06-04T16:33:39;4.90;;;2.05;;
18520;SDS011;9390;51.244;6.982;2023-06-04T16:36:10;7.07;;;2.28;;
18520;SDS011;9390;51.244;6.982;2023-06-04T16:38:43;7.82;;;1.98;;
18520;SDS011;9390;51.244;6.982;2023-06-04T16:41:14;4.32;;;1.80;;
18520;SDS011;9390;51.244;6.982;2023-06-04T16:43:46;4.47;;;1.92;;
18520;SDS011;9390;51.244;6.982;2023-06-04T16:46:17;5.05;;;1.80;;
18520;SDS011;9390;51.244;6.982;2023-06-04T16:48:48;8.07;;;2.25;;
18520;SDS011;9390;51.244;6.982;2023-06-04T16:51:20;4.70;;;2.03;;
18520;SDS011;9390;51.244;6.982;2023-06-04T16:53:53;5.53;;;2.10;;
18520;SDS011;9390;51.244;6.982;2023-06-04T16:56:24;7.75;;;1.90;;
18520;SDS011;9390;51.244;6.982;2023-06-04T16:58:56;4.10;;;1.77;;
18520;SDS011;9390;51.244;6.982;2023-06-04T17:01:27;5.85;;;1.88;;
18520;SDS011;9390;51.244;6.982;2023-06-04T17:03:59;4.68;;;2.00;;
18520;SDS011;9390;51.244;6.982;2023-06-04T17:06:30;7.40;;;2.15;;
18520;SDS011;9390;51.244;6.982;2023-06-04T17:09:03;5.53;;;2.20;;
18520;SDS011;9390;51.244;6.982;2023-06-04T17:11:35;5.85;;;2.38;;
18520;SDS011;9390;51.244;6.982;2023-06-04T17:14:08;6.55;;;2.20;;
18520;SDS011;9390;51.244;6.982;2023-06-04T17:16:40;6.65;;;2.10;;
18520;SDS011;9390;51.244;6.982;2023-06-04T17:19:11;6.00;;;2.10;;
18520;SDS011;9390;51.244;6.982;2023-06-04T17:21:42;4.95;;;2.20;;
18520;SDS011;9390;51.244;6.982;2023-06-04T17:24:15;4.15;;;1.80;;
18520;SDS011;9390;51.244;6.982;2023-06-04T17:29:18;6.90;;;2.10;;
18520;SDS011;9390;51.244;6.982;2023-06-04T17:31:49;5.95;;;2.00;;
18520;SDS011;9390;51.244;6.982;2023-06-04T17:34:21;7.00;;;2.22;;
18520;SDS011;9390;51.244;6.982;2023-06-04T17:36:52;4.47;;;2.35;;
18520;SDS011;9390;51.244;6.982;2023-06-04T17:39:25;7.35;;;2.00;;
18520;SDS011;9390;51.244;6.982;2023-06-04T17:44:27;5.65;;;2.20;;
18520;SDS011;9390;51.244;6.982;2023-06-04T17:46:59;6.10;;;2.40;;
18520;SDS011;9390;51.244;6.982;2023-06-04T17:49:33;8.77;;;2.60;;
18520;SDS011;9390;51.244;6.982;2023-06-04T17:52:05;5.57;;;2.50;;
18520;SDS011;9390;51.244;6.982;2023-06-04T17:54:37;5.78;;;2.13;;
18520;SDS011;9390;51.244;6.982;2023-06-04T17:57:09;5.22;;;2.00;;
18520;SDS011;9390;51.244;6.982;2023-06-04T17:59:40;6.40;;;2.20;;
18520;SDS011;9390;51.244;6.982;2023-06-04T18:02:12;6.85;;;2.08;;
18520;SDS011;9390;51.244;6.982;2023-06-04T18:04:43;7.32;;;2.65;;
18520;SDS011;9390;51.244;6.982;2023-06-04T18:07:18;7.05;;;2.35;;
18520;SDS011;9390;51.244;6.982;2023-06-04T18:09:51;5.07;;;2.45;;
18520;SDS011;9390;51.244;6.982;2023-06-04T18:14:53;6.13;;;2.03;;
18520;SDS011;9390;51.244;6.982;2023-06-04T18:17:25;5.32;;;1.90;;
18520;SDS011;9390;51.244;6.982;2023-06-04T18:19:56;6.50;;;2.05;;
18520;SDS011;9390;51.244;6.982;2023-06-04T18:22:28;5.97;;;2.20;;
18520;SDS011;9390;51.244;6.982;2023-06-04T18:25:00;5.40;;;2.20;;
18520;SDS011;9390;51.244;6.982;2023-06-04T18:30:03;3.38;;;1.70;;
18520;SDS011;9390;51.244;6.982;2023-06-04T18:35:08;5.22;;;1.85;;
18520;SDS011;9390;51.244;6.982;2023-06-04T18:37:40;7.47;;;1.90;;
18520;SDS011;9390;51.244;6.982;2023-06-04T18:40:13;7.15;;;1.98;;
18520;SDS011;9390;51.244;6.982;2023-06-04T18:42:46;9.30;;;2.35;;
18520;SDS011;9390;51.244;6.982;2023-06-04T18:45:18;7.30;;;2.08;;
18520;SDS011;9390;51.244;6.982;2023-06-04T18:47:49;7.38;;;2.28;;
18520;SDS011;9390;51.244;6.982;2023-06-04T18:50:21;8.18;;;2.38;;
18520;SDS011;9390;51.244;6.982;2023-06-04T18:52:52;5.15;;;1.75;;
18520;SDS011;9390;51.244;6.982;2023-06-04T18:55:25;8.43;;;2.20;;
18520;SDS011;9390;51.244;6.982;2023-06-04T18:57:57;7.25;;;2.13;;
18520;SDS011;9390;51.244;6.982;2023-06-04T19:00:28;4.78;;;1.80;;
18520;SDS011;9390;51.244;6.982;2023-06-04T19:02:59;4.82;;;1.85;;
18520;SDS011;9390;51.244;6.982;2023-06-04T19:05:31;6.47;;;2.10;;
18520;SDS011;9390;51.244;6.982;2023-06-04T19:08:02;9.93;;;1.98;;
18520;SDS011;9390;51.244;6.982;2023-06-04T19:10:35;7.60;;;2.38;;
18520;SDS011;9390;51.244;6.982;2023-06-04T19:13:06;9.02;;;2.13;;
18520;SDS011;9390;51.244;6.982;2023-06-04T19:15:38;5.82;;;2.03;;
18520;SDS011;9390;51.244;6.982;2023-06-04T19:18:09;6.22;;;2.15;;
18520;SDS011;9390;51.244;6.982;2023-06-04T19:20:40;7.90;;;1.83;;
18520;SDS011;9390;51.244;6.982;2023-06-04T19:23:12;8.25;;;2.05;;
18520;SDS011;9390;51.244;6.982;2023-06-04T19:25:44;8.45;;;1.92;;
18520;SDS011;9390;51.244;6.982;2023-06-04T19:28:16;6.82;;;1.80;;
18520;SDS011;9390;51.244;6.982;2023-06-04T19:30:47;5.63;;;2.25;;
18520;SDS011;9390;51.244;6.982;2023-06-04T19:33:19;5.95;;;2.22;;
18520;SDS011;9390;51.244;6.982;2023-06-04T19:35:50;5.60;;;1.75;;
18520;SDS011;9390;51.244;6.982;2023-06-04T19:38:22;6.13;;;1.98;;
18520;SDS011;9390;51.244;6.982;2023-06-04T19:40:55;7.65;;;2.03;;
18520;SDS011;9390;51.244;6.982;2023-06-04T19:43:26;5.53;;;1.80;;
18520;SDS011;9390;51.244;6.982;2023-06-04T19:45:58;5.65;;;1.92;;
18520;SDS011;9390;51.244;6.982;2023-06-04T19:48:31;5.40;;;1.80;;
18520;SDS011;9390;51.244;6.982;2023-06-04T19:51:03;6.00;;;1.60;;
18520;SDS011;9390;51.244;6.982;2023-06-04T19:53:35;3.60;;;1.50;;
18520;SDS011;9390;51.244;6.982;2023-06-04T19:56:08;4.32;;;1.58;;
18520;SDS011;9390;51.244;6.982;2023-06-04T19:58:39;4.43;;;1.60;;
18520;SDS011;9390;51.244;6.982;2023-06-04T20:01:11;5.20;;;1.52;;
18520;SDS011;9390;51.244;6.982;2023-06-04T20:03:42;3.78;;;1.58;;
18520;SDS011;9390;51.244;6.982;2023-06-04T20:06:13;5.68;;;1.77;;
18520;SDS011;9390;51.244;6.982;2023-06-04T20:08:45;6.15;;;1.98;;
18520;SDS011;9390;51.244;6.982;2023-06-04T20:11:18;6.25;;;1.88;;
18520;SDS011;9390;51.244;6.982;2023-06-04T20:16:20;12.45;;;1.85;;
18520;SDS011;9390;51.244;6.982;2023-06-04T20:18:52;7.97;;;2.40;;
18520;SDS011;9390;51.244;6.982;2023-06-04T20:21:23;7.43;;;2.03;;
18520;SDS011;9390;51.244;6.982;2023-06-04T20:23:54;9.48;;;2.30;;
18520;SDS011;9390;51.244;6.982;2023-06-04T20:26:27;11.55;;;2.30;;
18520;SDS011;9390;51.244;6.982;2023-06-04T20:28:58;8.38;;;2.20;;
18520;SDS011;9390;51.244;6.982;2023-06-04T20:31:30;6.82;;;2.10;;
18520;SDS011;9390;51.244;6.982;2023-06-04T20:34:01;5.28;;;2.08;;
18520;SDS011;9390;51.244;6.982;2023-06-04T20:36:33;8.10;;;1.98;;
18520;SDS011;9390;51.244;6.982;2023-06-04T20:41:38;5.13;;;2.20;;
18520;SDS011;9390;51.244;6.982;2023-06-04T20:44:11;6.18;;;2.03;;
18520;SDS011;9390;51.244;6.982;2023-06-04T20:46:42;7.15;;;2.05;;
18520;SDS011;9390;51.244;6.982;2023-06-04T20:49:13;9.13;;;2.70;;
18520;SDS011;9390;51.244;6.982;2023-06-04T20:51:45;10.35;;;2.10;;
18520;SDS011;9390;51.244;6.982;2023-06-04T20:54:16;6.18;;;1.92;;
18520;SDS011;9390;51.244;6.982;2023-06-04T20:56:49;4.10;;;1.70;;
18520;SDS011;9390;51.244;6.982;2023-06-04T20:59:20;5.78;;;2.30;;
18520;SDS011;9390;51.244;6.982;2023-06-04T21:01:51;8.05;;;2.75;;
18520;SDS011;9390;51.244;6.982;2023-06-04T21:04:23;11.45;;;3.65;;
18520;SDS011;9390;51.244;6.982;2023-06-04T21:06:54;10.30;;;2.80;;
18520;SDS011;9390;51.244;6.982;2023-06-04T21:09:26;7.57;;;2.42;;
18520;SDS011;9390;51.244;6.982;2023-06-04T21:11:59;3.65;;;1.67;;
18520;SDS011;9390;51.244;6.982;2023-06-04T21:14:30;5.80;;;1.80;;
18520;SDS011;9390;51.244;6.982;2023-06-04T21:17:02;7.57;;;1.60;;
18520;SDS011;9390;51.244;6.982;2023-06-04T21:19:33;4.57;;;1.58;;
18520;SDS011;9390;51.244;6.982;2023-06-04T21:22:04;4.80;;;1.83;;
18520;SDS011;9390;51.244;6.982;2023-06-04T21:24:36;11.88;;;2.10;;
18520;SDS011;9390;51.244;6.982;2023-06-04T21:27:08;5.72;;;2.33;;
18520;SDS011;9390;51.244;6.982;2023-06-04T21:29:40;12.23;;;2.97;;
18520;SDS011;9390;51.244;6.982;2023-06-04T21:32:11;10.15;;;3.00;;
18520;SDS011;9390;51.244;6.982;2023-06-04T21:34:43;12.05;;;4.53;;
18520;SDS011;9390;51.244;6.982;2023-06-04T21:37:14;19.30;;;8.00;;
18520;SDS011;9390;51.244;6.982;2023-06-04T21:39:45;12.38;;;5.85;;
18520;SDS011;9390;51.244;6.982;2023-06-04T21:42:18;11.85;;;5.55;;
18520;SDS011;9390;51.244;6.982;2023-06-04T21:44:49;11.32;;;5.97;;
18520;SDS011;9390;51.244;6.982;2023-06-04T21:47:21;9.18;;;4.40;;
18520;SDS011;9390;51.244;6.982;2023-06-04T21:49:52;8.02;;;3.15;;
18520;SDS011;9390;51.244;6.982;2023-06-04T21:52:24;6.88;;;2.85;;
18520;SDS011;9390;51.244;6.982;2023-06-04T21:54:55;4.82;;;2.25;;
18520;SDS011;9390;51.244;6.982;2023-06-04T21:57:28;8.00;;;2.70;;
18520;SDS011;9390;51.244;6.982;2023-06-04T21:59:59;13.55;;;3.80;;
18520;SDS011;9390;51.244;6.982;2023-06-04T22:02:30;10.55;;;4.47;;
18520;SDS011;9390;51.244;6.982;2023-06-04T22:05:02;9.25;;;3.58;;
18520;SDS011;9390;51.244;6.982;2023-06-04T22:07:34;7.68;;;2.60;;
18520;SDS011;9390;51.244;6.982;2023-06-04T22:10:06;4.32;;;1.73;;
18520;SDS011;9390;51.244;6.982;2023-06-04T22:12:39;5.00;;;1.80;;
18520;SDS011;9390;51.244;6.982;2023-06-04T22:15:11;4.45;;;1.75;;
18520;SDS011;9390;51.244;6.982;2023-06-04T22:17:42;6.47;;;1.77;;
18520;SDS011;9390;51.244;6.982;2023-06-04T22:20:14;4.00;;;2.15;;
18520;SDS011;9390;51.244;6.982;2023-06-04T22:22:45;3.97;;;1.40;;
18520;SDS011;9390;51.244;6.982;2023-06-04T22:25:17;5.43;;;1.77;;
18520;SDS011;9390;51.244;6.982;2023-06-04T22:27:50;7.35;;;1.70;;
18520;SDS011;9390;51.244;6.982;2023-06-04T22:30:21;5.03;;;1.60;;
18520;SDS011;9390;51.244;6.982;2023-06-04T22:32:52;6.28;;;2.10;;
18520;SDS011;9390;51.244;6.982;2023-06-04T22:35:24;5.32;;;1.85;;
18520;SDS011;9390;51.244;6.982;2023-06-04T22:37:55;6.93;;;2.03;;
18520;SDS011;9390;51.244;6.982;2023-06-04T22:40:26;10.88;;;3.33;;
18520;SDS011;9390;51.244;6.982;2023-06-04T22:42:59;10.00;;;2.80;;
18520;SDS011;9390;51.244;6.982;2023-06-04T22:45:31;5.22;;;1.80;;
18520;SDS011;9390;51.244;6.982;2023-06-04T22:48:02;6.25;;;2.30;;
18520;SDS011;9390;51.244;6.982;2023-06-04T22:50:34;6.90;;;2.28;;
18520;SDS011;9390;51.244;6.982;2023-06-04T22:53:07;3.80;;;1.60;;
18520;SDS011;9390;51.244;6.982;2023-06-04T22:55:38;4.85;;;1.50;;
18520;SDS011;9390;51.244;6.982;2023-06-04T22:58:11;3.30;;;1.60;;
18520;SDS011;9390;51.244;6.982;2023-06-04T23:00:42;4.57;;;1.70;;
18520;SDS011;9390;51.244;6.982;2023-06-04T23:03:19;6.82;;;1.70;;
18520;SDS011;9390;51.244;6.982;2023-06-04T23:05:50;8.25;;;1.95;;
18520;SDS011;9390;51.244;6.982;2023-06-04T23:08:21;5.22;;;1.45;;
18520;SDS011;9390;51.244;6.982;2023-06-04T23:10:53;4.32;;;1.88;;
18520;SDS011;9390;51.244;6.982;2023-06-04T23:13:25;8.65;;;1.90;;
18520;SDS011;9390;51.244;6.982;2023-06-04T23:15:57;4.88;;;1.75;;
18520;SDS011;9390;51.244;6.982;2023-06-04T23:18:28;6.75;;;1.88;;
18520;SDS011;9390;51.244;6.982;2023-06-04T23:21:00;10.00;;;3.30;;
18520;SDS011;9390;51.244;6.982;2023-06-04T23:23:31;14.18;;;3.20;;
18520;SDS011;9390;51.244;6.982;2023-06-04T23:26:02;11.18;;;3.90;;
18520;SDS011;9390;51.244;6.982;2023-06-04T23:28:35;13.27;;;3.75;;
18520;SDS011;9390;51.244;6.982;2023-06-04T23:31:06;14.88;;;4.00;;
18520;SDS011;9390;51.244;6.982;2023-06-04T23:33:38;9.50;;;3.03;;
18520;SDS011;9390;51.244;6.982;2023-06-04T23:36:09;13.02;;;4.13;;
18520;SDS011;9390;51.244;6.982;2023-06-04T23:38:40;11.00;;;4.30;;
18520;SDS011;9390;51.244;6.982;2023-06-04T23:41:12;11.88;;;3.55;;
18520;SDS011;9390;51.244;6.982;2023-06-04T23:43:46;10.38;;;3.97;;
18520;SDS011;9390;51.244;6.982;2023-06-04T23:46:17;12.18;;;4.30;;
18520;SDS011;9390;51.244;6.982;2023-06-04T23:48:48;12.10;;;4.50;;
18520;SDS011;9390;51.244;6.982;2023-06-04T23:51:20;13.48;;;4.93;;
18520;SDS011;9390;51.244;6.982;2023-06-04T23:53:52;15.48;;;4.93;;
18520;SDS011;9390;51.244;6.982;2023-06-04T23:56:24;14.00;;;3.58;;
18520;SDS011;9390;51.244;6.982;2023-06-04T23:58:57;10.30;;;3.53;;
